Time;durP1;ratioP1;P1;durP2;ratioP2;P2;SDS_P1;SDS_P2;PMS_P1;PMS_P2;Temp;Humidity;BMP_temperature;BMP_pressure;BME280_temperature;BME280_humidity;BME280_pressure;Samples;Min_cycle;Max_cycle;Signal;HPM_P1;HPM_P2
2021/01/27 00:00:38;;;;;;;1.10;0.75;;;15.20;62.40;;;;;;6337814;22;20011;-73
2021/01/27 00:03:17;;;;;;;1.92;0.80;;;15.20;62.40;;;;;;6336611;22;20041;-74
2021/01/27 00:05:57;;;;;;;2.05;1.17;;;15.20;62.40;;;;;;6337820;22;19995;-74
2021/01/27 00:08:29;;;;;;;3.70;1.05;;;15.20;62.50;;;;;;6337961;22;19991;-74
2021/01/27 00:10:54;;;;;;;1.75;1.02;;;15.20;62.50;;;;;;6337030;22;20021;-74
2021/01/27 00:13:23;;;;;;;2.45;0.90;;;15.20;62.40;;;;;;6337076;22;20120;-74
2021/01/27 00:15:53;;;;;;;1.55;0.90;;;15.20;62.40;;;;;;6337023;22;20022;-74
2021/01/27 00:18:39;;;;;;;1.90;1.00;;;15.20;62.50;;;;;;6337537;22;19995;-74
2021/01/27 00:21:09;;;;;;;2.05;0.80;;;15.20;62.40;;;;;;6310491;22;19999;-74
2021/01/27 00:23:55;;;;;;;2.40;1.25;;;15.20;62.40;;;;;;6337004;22;19995;-75
2021/01/27 00:26:25;;;;;;;2.00;1.05;;;15.20;62.50;;;;;;6335979;22;20332;-74
2021/01/27 00:28:56;;;;;;;3.65;1.23;;;15.20;62.50;;;;;;6338447;22;19999;-74
2021/01/27 00:31:34;;;;;;;2.88;1.15;;;15.20;62.50;;;;;;6309843;22;20007;-74
2021/01/27 00:34:05;;;;;;;1.15;0.88;;;15.20;62.50;;;;;;6338044;22;20003;-74
2021/01/27 00:36:30;;;;;;;1.58;0.80;;;15.20;62.50;;;;;;6336428;22;20003;-74
2021/01/27 00:39:10;;;;;;;1.75;1.10;;;15.20;62.50;;;;;;6336292;22;19999;-74
2021/01/27 00:41:40;;;;;;;1.67;1.05;;;15.20;62.50;;;;;;6337042;22;20006;-74
2021/01/27 00:44:11;;;;;;;2.38;0.93;;;15.20;62.60;;;;;;6337566;22;19991;-73
2021/01/27 00:46:42;;;;;;;2.65;1.23;;;15.20;62.60;;;;;;6339430;22;20055;-74
2021/01/27 00:49:13;;;;;;;3.47;1.23;;;15.10;62.60;;;;;;6339797;22;20083;-74
2021/01/27 00:51:39;;;;;;;1.98;1.05;;;15.10;62.60;;;;;;6338896;22;20027;-74
2021/01/27 00:54:09;;;;;;;1.75;0.80;;;15.10;62.60;;;;;;6339082;22;20006;-73
2021/01/27 00:56:35;;;;;;;1.55;0.90;;;15.10;62.60;;;;;;6337606;22;19999;-74
2021/01/27 00:59:01;;;;;;;3.28;1.17;;;15.10;62.60;;;;;;6338257;22;20010;-74
2021/01/27 01:01:31;;;;;;;2.28;1.35;;;15.10;62.60;;;;;;6314347;22;20494;-73
2021/01/27 01:04:01;;;;;;;2.28;0.70;;;15.10;62.60;;;;;;6306927;22;20026;-73
2021/01/27 01:06:32;;;;;;;2.25;1.00;;;15.10;62.60;;;;;;6308388;22;20000;-72
2021/01/27 01:09:00;;;;;;;1.38;0.90;;;15.10;62.60;;;;;;6307049;22;20440;-74
2021/01/27 01:11:26;;;;;;;;;;;15.10;62.60;;;;;;6306400;22;20078;-74
2021/01/27 01:13:51;;;;;;;1.17;0.93;;;15.10;62.70;;;;;;6307151;22;19941;-76
2021/01/27 01:16:22;;;;;;;1.42;0.80;;;15.10;62.60;;;;;;6307706;22;20417;-75
2021/01/27 01:18:47;;;;;;;1.90;0.82;;;15.10;62.60;;;;;;6308066;22;19999;-74
2021/01/27 01:21:13;;;;;;;2.00;1.08;;;15.20;62.60;;;;;;6305412;22;19996;-73
2021/01/27 01:23:40;;;;;;;1.17;0.80;;;15.10;62.60;;;;;;6278535;22;19999;-74
2021/01/27 01:26:06;;;;;;;1.97;1.43;;;15.10;62.60;;;;;;6303017;22;19999;-73
2021/01/27 01:28:32;;;;;;;1.38;1.00;;;15.20;62.50;;;;;;6279175;22;20234;-74
2021/01/27 01:31:12;;;;;;;2.10;1.17;;;15.20;62.50;;;;;;6305988;22;20002;-74
2021/01/27 01:33:37;;;;;;;3.15;1.30;;;15.20;62.40;;;;;;6305921;22;20053;-73
2021/01/27 01:36:06;;;;;;;2.97;1.40;;;15.20;62.40;;;;;;6306317;22;19996;-74
2021/01/27 01:38:39;;;;;;;3.20;1.33;;;15.20;62.40;;;;;;6277826;22;20002;-74
2021/01/27 01:41:16;;;;;;;1.40;0.90;;;15.20;62.40;;;;;;6305353;22;20023;-74
2021/01/27 01:43:46;;;;;;;2.17;0.98;;;15.20;62.30;;;;;;6302916;22;20010;-75
2021/01/27 01:46:29;;;;;;;1.63;1.05;;;15.20;62.30;;;;;;6303806;22;20053;-74
2021/01/27 01:49:07;;;;;;;2.35;1.10;;;15.20;62.20;;;;;;6305932;22;19999;-73
2021/01/27 01:51:40;;;;;;;1.70;0.90;;;15.30;62.20;;;;;;6305957;22;20006;-75
2021/01/27 01:54:23;;;;;;;2.58;1.20;;;15.20;62.10;;;;;;6305710;22;20026;-74
2021/01/27 01:57:35;;;;;;;2.72;1.10;;;15.30;62.10;;;;;;6302591;22;20044;-74
2021/01/27 02:00:07;;;;;;;2.42;0.95;;;15.30;62.10;;;;;;6292947;22;20014;-74
2021/01/27 02:02:46;;;;;;;3.25;1.05;;;15.30;62.10;;;;;;6337123;22;20105;-74
2021/01/27 02:05:19;;;;;;;;;;;15.30;62.10;;;;;;6337128;22;20018;-74
2021/01/27 02:07:59;;;;;;;1.67;0.90;;;15.30;62.00;;;;;;6308135;22;19902;-74
2021/01/27 02:10:37;;;;;;;1.60;0.85;;;15.30;62.00;;;;;;6337166;22;20005;-73
2021/01/27 02:13:17;;;;;;;;;;;15.30;62.00;;;;;;6335192;22;20366;-74
2021/01/27 02:16:03;;;;;;;2.75;1.50;;;15.30;62.00;;;;;;6335270;22;19933;-73
2021/01/27 02:18:41;;;;;;;3.00;0.93;;;15.30;62.00;;;;;;6286940;22;20070;-73
2021/01/27 02:22:15;;;;;;;;;;;;;;;;;;;;;
2021/01/27 02:25:08;;;;;;;2.47;1.00;;;15.30;61.90;;;;;;6329628;22;19999;-73
2021/01/27 02:27:53;;;;;;;2.75;1.20;;;15.30;61.90;;;;;;6307645;22;20409;-73
2021/01/27 02:30:31;;;;;;;2.20;0.90;;;15.30;61.90;;;;;;6336901;22;19995;-73
2021/01/27 02:33:25;;;;;;;1.25;0.90;;;15.30;61.90;;;;;;6337189;22;20562;-74
2021/01/27 02:36:00;;;;;;;2.03;0.90;;;15.30;61.90;;;;;;6335473;22;20523;-74
2021/01/27 02:38:41;;;;;;;2.45;0.77;;;15.30;61.90;;;;;;6336938;22;20063;-74
2021/01/27 02:41:37;;;;;;;1.90;0.80;;;15.30;61.90;;;;;;6336788;22;20001;-73
2021/01/27 02:44:12;;;;;;;3.20;1.00;;;15.30;61.90;;;;;;6336196;22;20018;-74
2021/01/27 02:46:51;;;;;;;2.88;1.20;;;15.30;61.90;;;;;;6336482;22;19999;-74
2021/01/27 02:49:26;;;;;;;2.78;1.25;;;15.30;61.90;;;;;;6336737;22;20009;-74
2021/01/27 02:52:20;;;;;;;2.33;1.20;;;15.30;61.90;;;;;;6336580;22;19999;-74
2021/01/27 02:55:04;;;;;;;1.35;1.15;;;15.30;61.90;;;;;;6330876;22;20460;-74
2021/01/27 02:57:55;;;;;;;1.60;0.77;;;15.30;61.90;;;;;;6335836;22;19991;-74
2021/01/27 03:00:29;;;;;;;2.17;1.23;;;15.30;62.00;;;;;;6336020;22;20011;-74
2021/01/27 03:03:04;;;;;;;1.35;0.77;;;15.30;62.00;;;;;;6336726;22;20022;-73
2021/01/27 03:05:59;;;;;;;0.77;0.63;;;15.20;62.00;;;;;;6308571;22;20003;-73
2021/01/27 03:08:31;;;;;;;2.10;1.00;;;15.20;62.10;;;;;;6336305;22;20003;-74
2021/01/27 03:11:16;;;;;;;1.63;1.08;;;15.20;62.10;;;;;;6335910;22;19994;-73
2021/01/27 03:13:55;;;;;;;2.50;1.20;;;15.20;62.10;;;;;;6336600;22;20010;-74
2021/01/27 03:16:29;;;;;;;3.25;1.27;;;15.20;62.10;;;;;;6335324;22;20441;-73
2021/01/27 03:19:20;;;;;;;1.48;0.90;;;15.20;62.20;;;;;;6336238;22;20560;-74
2021/01/27 03:21:54;;;;;;;2.00;1.02;;;15.20;62.20;;;;;;6336065;22;20029;-73
2021/01/27 03:24:23;;;;;;;2.80;1.38;;;15.20;62.20;;;;;;6336182;22;20030;-74
2021/01/27 03:27:33;;;;;;;1.85;0.90;;;15.20;62.30;;;;;;6332893;22;19998;-74
2021/01/27 03:30:07;;;;;;;1.65;0.73;;;15.20;62.30;;;;;;6275165;22;20476;-74
2021/01/27 03:32:44;;;;;;;1.73;0.73;;;15.10;62.30;;;;;;6336244;22;20317;-74
2021/01/27 03:35:32;;;;;;;1.55;0.95;;;15.10;62.40;;;;;;6334020;22;20007;-74
2021/01/27 03:38:03;;;;;;;;;;;15.10;62.30;;;;;;6333810;22;19999;-73
2021/01/27 03:40:45;;;;;;;2.05;1.02;;;15.10;62.40;;;;;;6306762;22;19898;-73
2021/01/27 03:43:27;;;;;;;0.90;0.73;;;15.10;62.40;;;;;;6334220;22;20536;-74
2021/01/27 03:46:33;;;;;;;1.23;0.70;;;15.10;62.40;;;;;;6334973;22;19995;-74
2021/01/27 03:49:29;;;;;;;1.23;0.90;;;15.10;62.40;;;;;;6289302;22;20007;-73
2021/01/27 03:52:10;;;;;;;4.78;1.52;;;15.10;62.40;;;;;;6333509;22;19995;-73
2021/01/27 03:54:45;;;;;;;4.10;0.88;;;15.10;62.40;;;;;;6332008;22;20009;-73
2021/01/27 03:57:22;;;;;;;1.67;0.80;;;15.10;62.50;;;;;;6304248;22;20017;-73
2021/01/27 03:59:57;;;;;;;2.97;1.15;;;15.10;62.50;;;;;;6306549;22;20002;-76
2021/01/27 04:02:22;;;;;;;1.88;0.90;;;15.10;62.50;;;;;;6335351;22;19998;-74
2021/01/27 04:04:51;;;;;;;1.10;0.88;;;15.10;62.40;;;;;;6332692;22;20021;-74
2021/01/27 04:07:17;;;;;;;2.60;0.90;;;15.10;62.40;;;;;;6333287;22;20005;-74
2021/01/27 04:09:47;;;;;;;2.20;1.00;;;15.10;62.40;;;;;;6332843;22;20002;-73
2021/01/27 04:12:18;;;;;;;2.17;1.05;;;15.10;62.40;;;;;;6334001;22;20044;-73
2021/01/27 04:14:48;;;;;;;1.10;0.70;;;15.10;62.40;;;;;;6332281;22;20010;-73
2021/01/27 04:17:32;;;;;;;2.03;0.95;;;15.00;62.50;;;;;;6331817;22;19999;-74
2021/01/27 04:19:58;;;;;;;2.45;0.90;;;15.10;62.50;;;;;;6334236;22;20006;-76
2021/01/27 04:22:29;;;;;;;1.92;1.10;;;15.00;62.50;;;;;;6307469;22;20059;-74
2021/01/27 04:25:09;;;;;;;2.67;1.10;;;15.00;62.50;;;;;;6335098;22;20482;-73
2021/01/27 04:27:39;;;;;;;2.08;0.80;;;15.00;62.50;;;;;;6335063;22;20015;-73
2021/01/27 04:30:06;;;;;;;1.35;0.75;;;15.00;62.50;;;;;;6334888;22;20057;-73
2021/01/27 04:32:37;;;;;;;2.60;1.00;;;15.00;62.50;;;;;;6307003;22;20006;-74
2021/01/27 04:35:09;;;;;;;0.95;0.57;;;15.00;62.50;;;;;;6334978;22;20052;-74
2021/01/27 04:37:39;;;;;;;1.15;0.70;;;15.00;62.50;;;;;;6336492;22;20363;-74
2021/01/27 04:40:10;;;;;;;1.70;0.88;;;15.00;62.50;;;;;;6336380;22;20065;-73
2021/01/27 04:42:36;;;;;;;2.08;0.95;;;15.00;62.40;;;;;;6337431;22;20455;-73
2021/01/27 04:45:26;;;;;;;1.33;0.60;;;15.00;62.40;;;;;;6310062;22;19998;-74
2021/01/27 04:48:13;;;;;;;1.13;0.77;;;15.10;62.30;;;;;;6337055;22;19999;-74
2021/01/27 04:50:55;;;;;;;1.33;0.98;;;15.10;62.30;;;;;;6337375;22;19995;-74
2021/01/27 04:53:59;;;;;;;1.88;0.82;;;15.10;62.30;;;;;;6337478;22;20358;-73
2021/01/27 04:56:43;;;;;;;1.83;0.90;;;15.10;62.20;;;;;;6210363;23;20008;-74
2021/01/27 04:59:33;;;;;;;0.70;0.70;;;15.10;62.20;;;;;;6325558;22;20102;-73
2021/01/27 05:02:02;;;;;;;1.15;1.00;;;15.10;62.20;;;;;;6271276;22;20023;-74
2021/01/27 05:04:43;;;;;;;;;;;15.20;62.10;;;;;;6278311;22;20527;-73
2021/01/27 05:07:19;;;;;;;2.50;1.50;;;15.20;62.10;;;;;;6277722;22;19937;-73
2021/01/27 05:10:00;;;;;;;1.75;1.00;;;15.20;62.00;;;;;;6278267;22;20420;-73
2021/01/27 05:12:53;;;;;;;1.60;0.93;;;15.20;62.00;;;;;;6304450;22;20074;-74
2021/01/27 05:15:22;;;;;;;1.40;0.90;;;15.20;61.90;;;;;;6278222;22;20007;-74
2021/01/27 05:17:55;;;;;;;1.33;0.75;;;15.20;61.90;;;;;;6278776;22;20302;-75
2021/01/27 05:20:55;;;;;;;1.67;0.90;;;15.20;61.90;;;;;;6306201;22;19996;-75
2021/01/27 05:23:26;;;;;;;1.73;0.80;;;15.20;61.90;;;;;;6305252;22;20003;-75
2021/01/27 05:26:19;;;;;;;1.45;0.63;;;15.20;61.90;;;;;;6305995;22;19999;-74
2021/01/27 05:29:04;;;;;;;1.50;0.88;;;15.20;61.90;;;;;;6278637;22;20085;-75
2021/01/27 05:32:02;;;;;;;1.98;1.10;;;15.20;61.90;;;;;;6278066;22;20317;-74
2021/01/27 05:34:35;;;;;;;;;;;15.20;61.90;;;;;;6305392;22;20023;-74
2021/01/27 05:37:08;;;;;;;2.17;0.93;;;15.20;61.90;;;;;;6305797;22;19910;-75
2021/01/27 05:39:46;;;;;;;2.05;0.90;;;15.20;61.90;;;;;;6306242;22;19999;-75
2021/01/27 05:42:31;;;;;;;1.05;0.80;;;15.20;61.90;;;;;;6306266;22;20019;-74
2021/01/27 05:45:32;;;;;;;1.15;0.88;;;15.20;61.90;;;;;;6278484;22;19995;-75
2021/01/27 05:48:21;;;;;;;0.85;0.70;;;15.20;61.90;;;;;;6269834;22;20329;-75
2021/01/27 05:50:47;;;;;;;1.42;1.00;;;15.20;61.90;;;;;;6305769;22;19991;-75
2021/01/27 05:53:18;;;;;;;1.88;0.90;;;15.20;61.90;;;;;;6306293;22;20078;-76
2021/01/27 05:56:15;;;;;;;2.30;0.82;;;15.20;61.90;;;;;;6306199;22;20027;-75
2021/01/27 05:59:07;;;;;;;0.95;0.70;;;15.20;62.00;;;;;;6305780;22;19999;-74
2021/01/27 06:01:49;;;;;;;1.35;0.95;;;15.20;62.00;;;;;;6329951;22;20014;-74
2021/01/27 06:04:25;;;;;;;0.85;0.65;;;15.20;62.00;;;;;;6335701;22;20003;-74
2021/01/27 06:06:55;;;;;;;1.48;0.80;;;15.20;62.00;;;;;;6307846;22;20034;-75
2021/01/27 06:09:36;;;;;;;1.15;0.55;;;15.10;62.00;;;;;;6308521;22;20451;-75
2021/01/27 06:12:17;;;;;;;2.05;1.00;;;15.10;62.00;;;;;;6308430;22;20014;-75
2021/01/27 06:15:13;;;;;;;1.85;0.93;;;15.10;62.10;;;;;;6309075;22;19999;-75
2021/01/27 06:17:50;;;;;;;1.70;1.00;;;15.10;62.10;;;;;;6336110;22;20331;-74
2021/01/27 06:20:16;;;;;;;1.02;0.70;;;15.10;62.10;;;;;;6308926;22;20005;-74
2021/01/27 06:23:06;;;;;;;1.83;1.20;;;15.10;62.10;;;;;;6309662;22;20077;-75
2021/01/27 06:25:51;;;;;;;1.30;0.80;;;15.10;62.10;;;;;;6309119;22;19998;-74
2021/01/27 06:28:42;;;;;;;1.35;0.85;;;15.10;62.10;;;;;;6308583;22;20444;-75
2021/01/27 06:31:46;;;;;;;1.13;0.70;;;15.10;62.20;;;;;;6309545;22;20404;-75
2021/01/27 06:34:18;;;;;;;1.25;0.65;;;15.10;62.20;;;;;;6308688;22;20448;-75
2021/01/27 06:36:53;;;;;;;1.25;0.73;;;15.10;62.20;;;;;;6307874;22;20022;-75
2021/01/27 06:39:37;;;;;;;0.75;0.52;;;15.10;62.30;;;;;;6306644;22;20093;-75
2021/01/27 06:42:27;;;;;;;1.52;0.90;;;15.10;62.30;;;;;;6331784;22;20041;-74
2021/01/27 06:45:13;;;;;;;3.10;1.20;;;15.00;62.30;;;;;;6308969;22;19995;-75
2021/01/27 06:48:00;;;;;;;2.47;0.70;;;15.00;62.40;;;;;;6337205;22;19999;-75
2021/01/27 06:50:35;;;;;;;1.95;1.05;;;15.00;62.30;;;;;;6336904;22;20034;-75
2021/01/27 06:53:24;;;;;;;1.45;0.70;;;15.00;62.40;;;;;;6336025;22;20045;-74
2021/01/27 06:56:13;;;;;;;1.65;0.73;;;15.00;62.30;;;;;;6335391;22;20013;-72
2021/01/27 06:59:27;;;;;;;0.82;0.70;;;15.00;62.30;;;;;;6334637;22;19994;-72
2021/01/27 07:02:29;;;;;;;1.83;0.60;;;15.10;62.30;;;;;;6308452;22;20014;-75
2021/01/27 07:05:19;;;;;;;1.60;0.73;;;15.10;62.20;;;;;;6308557;22;20084;-75
2021/01/27 07:08:08;;;;;;;1.80;0.85;;;15.10;62.20;;;;;;6334799;22;20002;-74
2021/01/27 07:11:16;;;;;;;0.73;0.60;;;15.10;62.10;;;;;;6307525;22;20090;-75
2021/01/27 07:13:54;;;;;;;2.30;0.70;;;15.10;62.10;;;;;;6335588;22;20002;-75
2021/01/27 07:16:52;;;;;;;1.40;0.80;;;15.20;62.00;;;;;;6308767;22;20001;-74
2021/01/27 07:19:36;;;;;;;1.67;0.93;;;15.20;61.90;;;;;;6336253;22;20002;-75
2021/01/27 07:22:21;;;;;;;0.65;0.63;;;15.20;61.90;;;;;;6335918;22;20003;-74
2021/01/27 07:25:25;;;;;;;1.05;0.70;;;15.20;61.90;;;;;;6333954;22;19997;-75
2021/01/27 07:28:20;;;;;;;1.30;0.82;;;15.20;61.80;;;;;;6306623;22;20014;-75
2021/01/27 07:31:18;;;;;;;1.08;0.80;;;15.20;61.70;;;;;;6279776;22;19998;-74
2021/01/27 07:33:57;;;;;;;0.68;0.60;;;15.20;61.70;;;;;;6336602;22;20003;-75
2021/01/27 07:36:35;;;;;;;0.68;0.60;;;15.20;61.60;;;;;;6333962;22;20011;-74
2021/01/27 07:39:25;;;;;;;0.70;0.60;;;15.20;61.70;;;;;;6333139;22;20003;-74
2021/01/27 07:42:00;;;;;;;1.15;0.73;;;15.30;61.60;;;;;;6305426;22;20485;-74
2021/01/27 07:44:27;;;;;;;1.33;0.68;;;15.30;61.50;;;;;;6335190;22;19999;-74
2021/01/27 07:47:15;;;;;;;1.02;0.80;;;15.30;61.50;;;;;;6335794;22;20492;-75
2021/01/27 07:49:45;;;;;;;1.10;0.50;;;15.30;61.50;;;;;;6316021;22;20409;-75
2021/01/27 07:52:35;;;;;;;1.77;0.70;;;15.30;61.40;;;;;;6306609;22;20032;-74
2021/01/27 07:55:45;;;;;;;0.77;0.52;;;15.30;61.40;;;;;;6334901;22;20042;-74
2021/01/27 07:58:27;;;;;;;2.38;0.70;;;15.30;61.40;;;;;;6304565;22;20423;-75
2021/01/27 08:01:28;;;;;;;1.15;0.85;;;15.30;61.30;;;;;;6308524;22;20011;-74
2021/01/27 08:04:36;;;;;;;;;;;;;;;;;;;;;
2021/01/27 08:06:54;;;;;;;0.85;0.70;;;15.30;61.30;;;;;;6327058;22;20007;-74
2021/01/27 08:09:36;;;;;;;3.05;0.82;;;15.30;61.30;;;;;;6332889;22;20041;-75
2021/01/27 08:12:26;;;;;;;1.13;0.80;;;15.30;61.30;;;;;;6335012;22;19995;-74
2021/01/27 08:15:18;;;;;;;1.10;0.73;;;15.30;61.30;;;;;;6336024;22;20073;-74
2021/01/27 08:17:48;;;;;;;1.88;1.30;;;15.30;61.40;;;;;;6333760;22;19999;-75
2021/01/27 08:20:25;;;;;;;1.15;0.82;;;15.30;61.30;;;;;;6335256;22;19999;-73
2021/01/27 08:23:07;;;;;;;1.17;0.63;;;15.30;61.30;;;;;;6335537;22;20005;-75
2021/01/27 08:26:10;;;;;;;1.38;1.10;;;15.30;61.30;;;;;;6333591;22;19995;-73
2021/01/27 08:28:40;;;;;;;1.20;0.70;;;15.30;61.30;;;;;;6306910;22;20003;-72
2021/01/27 08:31:16;;;;;;;1.02;0.63;;;15.30;61.40;;;;;;6335391;22;20447;-72
2021/01/27 08:33:52;;;;;;;4.00;0.70;;;15.30;61.40;;;;;;6335533;22;19999;-73
2021/01/27 08:36:29;;;;;;;1.45;0.63;;;15.30;61.40;;;;;;6307149;22;20003;-72
2021/01/27 08:39:21;;;;;;;2.00;0.65;;;15.30;61.40;;;;;;6332236;22;19999;-73
2021/01/27 08:42:11;;;;;;;1.00;0.50;;;15.30;61.40;;;;;;6331140;22;20005;-72
2021/01/27 08:45:11;;;;;;;1.60;0.90;;;15.30;61.40;;;;;;6307898;22;20006;-72
2021/01/27 08:47:42;;;;;;;1.52;0.55;;;15.30;61.30;;;;;;6335443;22;20034;-72
2021/01/27 08:50:47;;;;;;;2.10;0.40;;;15.30;61.40;;;;;;6334581;22;20037;-72
2021/01/27 08:53:20;;;;;;;1.70;0.75;;;15.30;61.40;;;;;;6335002;22;20052;-72
2021/01/27 08:55:45;;;;;;;1.08;0.63;;;15.30;61.40;;;;;;6307133;22;20027;-72
2021/01/27 08:58:23;;;;;;;0.88;0.68;;;15.30;61.40;;;;;;6333908;22;20306;-72
2021/01/27 09:00:53;;;;;;;0.60;0.50;;;15.30;61.30;;;;;;6335116;22;20010;-72
2021/01/27 09:03:51;;;;;;;1.38;0.70;;;15.30;61.40;;;;;;6336040;22;20006;-72
2021/01/27 09:06:49;;;;;;;3.08;0.80;;;15.30;61.30;;;;;;6336717;22;20110;-73
2021/01/27 09:09:26;;;;;;;0.77;0.70;;;15.40;61.30;;;;;;6336960;22;19995;-73
2021/01/27 09:12:08;;;;;;;0.87;0.80;;;15.40;61.10;;;;;;6335166;22;20095;-72
2021/01/27 09:14:51;;;;;;;0.77;0.63;;;15.50;60.90;;;;;;6309171;22;20043;-72
2021/01/27 09:17:33;;;;;;;1.17;0.70;;;15.50;60.70;;;;;;6337608;22;19999;-72
2021/01/27 09:20:27;;;;;;;1.50;1.08;;;15.50;60.70;;;;;;6337431;22;19998;-71
2021/01/27 09:23:04;;;;;;;0.95;0.60;;;15.50;60.70;;;;;;6330938;22;20012;-73
2021/01/27 09:26:03;;;;;;;0.98;0.60;;;15.50;60.60;;;;;;6334326;22;20006;-72
2021/01/27 09:28:33;;;;;;;2.10;0.90;;;15.60;60.50;;;;;;6335757;22;20541;-72
2021/01/27 09:31:03;;;;;;;1.20;0.95;;;15.60;60.50;;;;;;6336820;22;20006;-72
2021/01/27 09:33:34;;;;;;;0.82;0.68;;;15.60;60.40;;;;;;6337021;22;19995;-72
2021/01/27 09:36:30;;;;;;;1.38;0.80;;;15.60;60.30;;;;;;6335365;22;20017;-73
2021/01/27 09:39:02;;;;;;;1.85;0.75;;;15.70;60.20;;;;;;6332388;22;20006;-72
2021/01/27 09:41:43;;;;;;;1.00;0.65;;;15.70;60.20;;;;;;6336593;22;19999;-73
2021/01/27 09:44:36;;;;;;;0.70;0.43;;;15.70;60.20;;;;;;6336927;22;20002;-72
2021/01/27 09:47:10;;;;;;;0.68;0.50;;;15.70;60.10;;;;;;6337263;22;19998;-72
2021/01/27 09:49:57;;;;;;;1.13;0.88;;;15.70;60.10;;;;;;6337296;22;20048;-72
2021/01/27 09:52:25;;;;;;;0.50;0.38;;;15.80;60.00;;;;;;6335102;22;20011;-73
2021/01/27 09:55:06;;;;;;;1.67;1.10;;;15.80;59.90;;;;;;6333956;22;20482;-72
2021/01/27 09:57:34;;;;;;;0.90;0.73;;;15.80;59.90;;;;;;6334209;22;20076;-72
2021/01/27 10:00:00;;;;;;;1.58;0.70;;;15.80;59.90;;;;;;6336695;22;20019;-72
2021/01/27 10:02:32;;;;;;;0.98;0.77;;;15.80;59.90;;;;;;6336600;22;20527;-73
2021/01/27 10:05:02;;;;;;;1.55;0.70;;;15.80;59.80;;;;;;6308981;22;20325;-72
2021/01/27 10:07:34;;;;;;;1.45;0.80;;;15.80;59.80;;;;;;6333619;22;19999;-72
2021/01/27 10:10:15;;;;;;;1.00;0.75;;;15.80;59.70;;;;;;6333462;22;20006;-72
2021/01/27 10:12:42;;;;;;;1.88;0.60;;;15.80;59.70;;;;;;6332468;22;20464;-71
2021/01/27 10:15:30;;;;;;;0.98;0.80;;;15.80;59.60;;;;;;6336718;22;20081;-72
2021/01/27 10:18:09;;;;;;;2.88;0.63;;;15.80;59.60;;;;;;6336550;22;19991;-72
2021/01/27 10:20:37;;;;;;;0.85;0.55;;;15.80;59.70;;;;;;6336325;22;20073;-72
2021/01/27 10:23:07;;;;;;;2.10;0.60;;;15.80;59.80;;;;;;6335979;22;20002;-72
2021/01/27 10:25:49;;;;;;;0.95;0.50;;;15.80;59.80;;;;;;6336369;22;20081;-74
2021/01/27 10:28:20;;;;;;;1.63;0.65;;;15.80;59.90;;;;;;6333857;22;20001;-72
2021/01/27 10:31:01;;;;;;;1.60;0.80;;;15.70;59.90;;;;;;6336664;22;19995;-73
2021/01/27 10:33:42;;;;;;;4.38;1.20;;;15.80;60.00;;;;;;6309149;22;20010;-72
2021/01/27 10:36:38;;;;;;;4.65;1.35;;;15.80;59.80;;;;;;6336333;22;20109;-73
2021/01/27 10:39:25;;;;;;;6.22;1.38;;;15.70;59.70;;;;;;6323472;22;20036;-74
2021/01/27 10:42:09;;;;;;;7.73;1.70;;;15.70;59.80;;;;;;6333737;22;20006;-74
2021/01/27 10:44:38;;;;;;;10.52;1.65;;;15.80;59.60;;;;;;6308093;22;20003;-74
2021/01/27 10:47:10;;;;;;;8.10;1.48;;;15.80;59.50;;;;;;6308246;22;20129;-73
2021/01/27 10:49:45;;;;;;;5.13;1.75;;;15.80;59.30;;;;;;6335569;22;20073;-74
2021/01/27 10:52:31;;;;;;;6.53;2.25;;;15.80;59.30;;;;;;6334969;22;20312;-74
2021/01/27 10:55:01;;;;;;;6.47;2.00;;;15.80;59.20;;;;;;6336012;22;20048;-73
2021/01/27 10:57:27;;;;;;;7.90;1.30;;;15.80;59.20;;;;;;6334522;22;19999;-73
2021/01/27 11:00:00;;;;;;;7.85;1.77;;;15.80;59.10;;;;;;6334189;22;20002;-73
2021/01/27 11:02:33;;;;;;;6.70;1.63;;;15.80;59.00;;;;;;6332148;22;20007;-73
2021/01/27 11:04:58;;;;;;;6.85;1.98;;;15.80;58.90;;;;;;6334816;22;19990;-73
2021/01/27 11:07:24;;;;;;;6.45;1.90;;;15.80;58.90;;;;;;6332377;22;20409;-73
2021/01/27 11:09:54;;;;;;;11.95;1.73;;;15.80;58.80;;;;;;6333084;22;20010;-73
2021/01/27 11:12:20;;;;;;;8.13;1.88;;;15.80;58.70;;;;;;6333667;22;20002;-72
2021/01/27 11:14:46;;;;;;;8.20;2.28;;;15.70;58.80;;;;;;6333592;22;20010;-73
2021/01/27 11:17:11;;;;;;;9.18;1.70;;;15.70;58.70;;;;;;6335839;22;19999;-73
2021/01/27 11:19:37;;;;;;;8.27;1.95;;;15.80;59.40;;;;;;6331684;22;20234;-73
2021/01/27 11:22:03;;;;;;;6.82;1.80;;;15.80;59.30;;;;;;6334763;22;20002;-72
2021/01/27 11:24:32;;;;;;;7.80;2.20;;;15.80;59.30;;;;;;6334481;22;19999;-72
2021/01/27 11:26:58;;;;;;;9.23;2.67;;;15.80;59.30;;;;;;6335001;22;20413;-72
2021/01/27 11:29:23;;;;;;;13.15;4.03;;;15.80;59.20;;;;;;6307340;22;20005;-72
2021/01/27 11:31:49;;;;;;;7.60;2.90;;;15.90;59.20;;;;;;6334810;22;20003;-72
2021/01/27 11:34:17;;;;;;;10.43;3.55;;;15.80;59.20;;;;;;6333214;22;20045;-73
2021/01/27 11:36:44;;;;;;;;;;;15.90;59.10;;;;;;6335173;22;20381;-72
2021/01/27 11:39:10;;;;;;;9.75;2.38;;;15.90;59.00;;;;;;6306719;22;20301;-72
2021/01/27 11:41:59;;;;;;;15.90;3.35;;;15.90;59.00;;;;;;6306572;22;20037;-72
2021/01/27 11:44:24;;;;;;;11.82;2.70;;;15.90;58.80;;;;;;6334192;22;20069;-72
2021/01/27 11:46:50;;;;;;;13.40;2.90;;;16.00;58.80;;;;;;6334069;22;20029;-72
2021/01/27 11:49:16;;;;;;;13.35;3.42;;;15.90;58.70;;;;;;6307123;22;20010;-72
2021/01/27 11:51:41;;;;;;;13.50;2.72;;;15.90;58.60;;;;;;6306050;22;20026;-72
2021/01/27 11:54:07;;;;;;;12.60;2.95;;;16.00;58.70;;;;;;6331135;22;20472;-72
2021/01/27 11:56:45;;;;;;;14.90;3.97;;;15.90;58.60;;;;;;6331695;22;20006;-72
2021/01/27 11:59:15;;;;;;;9.80;2.60;;;16.00;58.60;;;;;;6334375;22;20002;-72
2021/01/27 12:01:43;;;;;;;11.25;2.60;;;16.00;58.60;;;;;;6335295;22;20452;-72
2021/01/27 12:04:09;;;;;;;12.48;2.70;;;16.00;58.50;;;;;;6335133;22;19999;-73
2021/01/27 12:06:37;;;;;;;12.30;2.90;;;16.00;58.50;;;;;;6307211;22;20020;-73
2021/01/27 12:09:03;;;;;;;10.75;2.60;;;16.00;58.50;;;;;;6306100;22;20002;-72
2021/01/27 12:11:29;;;;;;;11.65;2.80;;;16.00;58.70;;;;;;6334641;22;20353;-72
2021/01/27 12:13:55;;;;;;;19.38;2.53;;;16.00;58.50;;;;;;6336804;22;19999;-71
2021/01/27 12:16:25;;;;;;;17.27;3.67;;;16.00;58.80;;;;;;6335194;22;20006;-73
2021/01/27 12:18:51;;;;;;;15.18;2.72;;;16.00;59.00;;;;;;6335341;22;20049;-70
2021/01/27 12:21:16;;;;;;;13.07;2.92;;;16.10;59.60;;;;;;6335750;22;20069;-71
2021/01/27 12:23:42;;;;;;;9.75;3.08;;;16.00;60.20;;;;;;6307165;22;20006;-71
2021/01/27 12:26:07;;;;;;;12.95;2.70;;;16.00;60.80;;;;;;6334621;22;20002;-71
2021/01/27 12:28:33;;;;;;;11.55;2.33;;;16.00;62.10;;;;;;6332724;22;20057;-72
2021/01/27 12:30:59;;;;;;;11.98;3.33;;;16.10;62.90;;;;;;6334384;22;19998;-70
2021/01/27 12:33:25;;;;;;;11.30;2.65;;;16.10;62.40;;;;;;6306556;22;20073;-70
2021/01/27 12:35:52;;;;;;;14.68;3.40;;;16.20;64.90;;;;;;6334956;22;20388;-71
2021/01/27 12:38:18;;;;;;;14.75;2.67;;;16.20;67.00;;;;;;6308087;22;20006;-71
2021/01/27 12:40:44;;;;;;;12.75;3.55;;;16.20;69.00;;;;;;6336283;22;19999;-74
2021/01/27 12:43:10;;;;;;;11.45;2.75;;;16.20;70.60;;;;;;6335890;22;20013;-73
2021/01/27 12:45:41;;;;;;;17.73;2.70;;;16.30;72.30;;;;;;6334721;22;20010;-73
2021/01/27 12:48:11;;;;;;;10.98;2.88;;;16.30;74.10;;;;;;6336123;22;20621;-74
2021/01/27 12:50:37;;;;;;;9.73;2.40;;;16.30;73.00;;;;;;6337395;22;20428;-74
2021/01/27 12:53:02;;;;;;;9.70;2.80;;;16.20;69.20;;;;;;6337024;22;20011;-74
2021/01/27 12:55:40;;;;;;;7.38;2.60;;;16.10;67.00;;;;;;6310705;22;20030;-74
2021/01/27 12:58:10;;;;;;;6.45;2.35;;;16.10;65.40;;;;;;6337165;22;19995;-74
2021/01/27 13:00:50;;;;;;;9.48;1.98;;;16.00;63.90;;;;;;6337283;22;20010;-74
2021/01/27 13:03:23;;;;;;;5.65;2.00;;;15.90;63.30;;;;;;6336961;22;20447;-71
2021/01/27 13:05:50;;;;;;;7.70;1.92;;;15.90;62.80;;;;;;6337462;22;19999;-71
2021/01/27 13:08:16;;;;;;;8.93;3.03;;;15.90;62.30;;;;;;6336754;22;20005;-71
2021/01/27 13:10:44;;;;;;;11.13;2.45;;;15.90;62.00;;;;;;6336969;22;19995;-72
2021/01/27 13:13:11;;;;;;;8.57;2.42;;;15.90;61.80;;;;;;6334967;22;20005;-73
2021/01/27 13:15:40;;;;;;;5.28;1.80;;;15.80;61.60;;;;;;6307734;22;20080;-74
2021/01/27 13:18:12;;;;;;;9.63;1.98;;;15.80;61.30;;;;;;6335125;22;20052;-73
2021/01/27 13:20:43;;;;;;;10.50;2.42;;;15.80;62.50;;;;;;6335241;22;20001;-74
2021/01/27 13:23:13;;;;;;;7.40;1.92;;;15.90;64.00;;;;;;6307613;22;20045;-74
2021/01/27 13:25:39;;;;;;;7.20;2.45;;;15.90;66.90;;;;;;6336118;22;19994;-73
2021/01/27 13:28:05;;;;;;;8.10;2.58;;;16.00;70.60;;;;;;6335920;22;19991;-73
2021/01/27 13:30:34;;;;;;;7.20;1.70;;;16.00;69.60;;;;;;6332848;22;20030;-74
2021/01/27 13:33:00;;;;;;;9.13;2.08;;;16.00;71.10;;;;;;6334679;22;20103;-74
2021/01/27 13:35:38;;;;;;;12.23;2.55;;;16.10;72.90;;;;;;6334534;22;20392;-71
2021/01/27 13:38:04;;;;;;;5.25;1.90;;;16.00;69.00;;;;;;6333880;22;20459;-71
2021/01/27 13:40:30;;;;;;;7.32;2.80;;;16.00;67.10;;;;;;6307192;22;20107;-72
2021/01/27 13:42:57;;;;;;;5.55;2.00;;;16.00;67.40;;;;;;6336663;22;20313;-71